Ride Results

New Italy (14-09-2013)
Ride distance: 80.0 km

Outcomes - New Italy (14-09-2013)
Division No. of Entries Retired / DNE Completed Withdrawn Ineligible V/O Percentage Completed
HW 11 - 8 3 - - 72.73%
MW 19 - 16 2 - 1 84.21%
LW 14 - 11 - - 3 78.57%
JN 7 - 7 - - - 100.00%
Totals 51 - 42 5 - 4 82.35%
Results - New Italy (14-09-2013)
No. Rider Horse Place Time Leg Speeds Total
Km/Hr
H/R bpm
Heavyweight
31 Matthew Gadsby Annordean Balin 1 6:01:00 13.3, 13.2 13.30 40, 47, 52 (Avg:49)
12 Peter McDonald Wollumbin Rafiq 2 (BC) 6:31:00 12.4, 12.0 12.28 36, 48, 54 (Avg:51)
15 Christopher Dart Moonlight Dream 3 6:38:00 13.3, 11.0 12.06 51, 53, 54 (Avg:53)
28 Gary Thomas Cherox Decire 4 6:47:00 12.6, 11.0 11.79 37, 47, 49 (Avg:48)
34 Phil Coleman Rainbows Reach Snowfyre 5 7:12:00 12.1, 10.2 11.11 38, 47, 53 (Avg:50)
17 Doug Dart Cameo Silver Slipper 5 7:12:00 11.3, 10.8 11.11 40, 40, 44 (Avg:42)
47 Tangil Kinch Kim-Dande Shatahli 7 7:40:00 11.3, 9.6 10.43 35, 40, 50 (Avg:45)
39 Keith Sumpner Fonda 8 8:17:00 10.7, 8.7 9.66 32, 48, 52 (Avg:50)
2 Len Derkacz Salam Zahbeel Withdrawn L1 0:00:00 - - 38, 37, 54 (Avg:45)
46 Allyson Taylor Bonnie Downs Aisha Withdrawn L1 0:00:00 - - 40, 50 (Avg:50)
45 Lauren Trenkner Woodbourne Friday Withdrawn L1 0:00:00 - - 37, 46 (Avg:46)
Middleweight
33 Narelle Childs Halo Kazaam 1 4:31:00 18.6, 16.9 17.71 34, 43, 52 (Avg:47)
19 Sabrina Stephens Cameo Silver Bellz 1 (BC) 4:31:00 18.6, 16.9 17.71 37, 50, 51 (Avg:50)
44 Judith Burton Woodbourne Kitty Hawk 3 5:15:00 17.3, 13.5 15.24 34, 37, 41 (Avg:39)
4 Peter Kelly Razorback Jack 4 5:18:00 16.2, 14.1 15.09 40, 53, 58 (Avg:55)
27 Derryn Nix Rowallan Rufous 5 5:46:00 13.4, 14.2 13.87 37, 44, 51 (Avg:47)
25 Corey Nix Razorback Blue Rhapsody 5 5:46:00 13.4, 14.2 13.87 34, 43, 42 (Avg:42)
36 Dean Chamberlain Annordean Cash 7 6:01:00 13.3, 13.2 13.30 36, 48, 52 (Avg:50)
9 Sharon Foster Sharabel Kalarney 8 6:05:00 13.3, 12.9 13.15 41, 42, 47 (Avg:44)
8 Christopher Schofield Bradali Ice N Rain 8 6:05:00 13.3, 12.9 13.15 50, 53, 51 (Avg:52)
41 Jess Fuhlbohm Summervale Top Gear 10 6:06:00 13.1, 13.0 13.11 44, 44, 49 (Avg:46)
38 Karen Lee Samsara Magic Eagle 11 6:23:00 13.3, 11.8 12.53 43, 48, 51 (Avg:49)
24 Stephen Gray Aloha Kabuki 12 6:25:00 13.1, 11.8 12.47 35, 39, 46 (Avg:42)
22 Troy Roosen Camilla's English Rose 13 7:11:00 12.8, 9.8 11.14 35, 47, 54 (Avg:50)
32 Megan Matters Duray Djzulu 14 7:40:00 11.3, 9.6 10.43 39, 40, 47 (Avg:43)
10 Hannah Houlden Lara's Song 15 7:51:00 10.7, 9.7 10.19 48, 44, 45 (Avg:44)
16 Lynn Coles Pinedene Arabella 16 8:23:00 10.3, 8.8 9.54 41, 43, 47 (Avg:45)
40 Bill Ward Alcienne Dominion Heart Rate L2 0:00:00 2.0, 16.9 - 35, 43, 67 (Avg:55)
42 Jo Hamilton-Branigan Kholonial Boadecia Withdrawn L1 0:00:00 - - 34, 39 (Avg:39)
13 Tracey Hutchinson Churinga Simfire Withdrawn L1 0:00:00 - - 49, 47 (Avg:47)
Lightweight
3 Caroline Windle Sarina Rosetta 1 (BC) 5:18:00 17.3, 13.3 15.09 32, 49, 58 (Avg:53)
26 Antonia Somerville Allyndah Dezynah Vogue 2 5:21:00 15.8, 14.1 14.95 39, 46, 57 (Avg:51)
37 Annette Chamberlain Annordean Lady Lilly 3 6:00:00 13.4, 13.2 13.33 37, 48, 47 (Avg:47)
21 Christal Rizk Oakley Park Anticipation 4 6:38:00 12.7, 11.4 12.06 31, 39, 53 (Avg:46)
5 Cindy Holden San Juan 5 7:11:00 12.8, 9.8 11.14 40, 54, 47 (Avg:50)
23 Janelle Roosen Yindarra Saphire 5 7:11:00 12.8, 9.8 11.14 35, 45, 47 (Avg:46)
18 Meleita Dart Cameo Rhodezia 7 7:12:00 11.3, 10.8 11.11 36, 38, 41 (Avg:39)
35 Ros Ryan Rainbows Reach Scout 7 7:12:00 12.1, 10.2 11.11 31, 35, 39 (Avg:37)
51 Melinda Macfarlane Lyndon 9 7:23:00 13.1, 9.1 10.84 36, 41, 39 (Avg:40)
6 Mindy Davies Pioneer Park Theatric 10 7:54:00 11.2, 9.1 10.13 41, 43, 45 (Avg:44)
43 Carla Jones Kholonial Bartholomew 11 8:17:00 10.3, 9.0 9.66 35, 43, 49 (Avg:46)
7 Monique Flower Annabar Ro'Hahn Lame L2 0:00:00 11.2, 9.1 - 39, 50, 57 (Avg:53)
48 Yvonne Hicks Outriders Caruso Lame L1 0:00:00 10.3 - 38, 43 (Avg:43)
14 Libby Jones Prada Kei Lame L1 0:00:00 12.9 - 37, 43 (Avg:43)
Junior
52 Colleen Krahnen La Battista Shadow Fax 1 (BC) 4:31:00 17.2, 18.1 17.71 38, 47, 44 (Avg:45)
49 Rhiannon Corney Bonnie Downs Samir 2 5:06:00 17.7, 14.0 15.69 34, 47, 47 (Avg:47)
50 Amee Jones Asalah 2 5:06:00 17.7, 14.0 15.69 37, 42, 50 (Avg:46)
20 Amber Weale Dunbar Coco Chanel 4 5:15:00 16.9, 13.8 15.24 36, 37, 42 (Avg:39)
30 Tayla Hadzi Kalkadoon Alfresco 5 5:50:00 13.6, 13.7 13.71 34, 46, 47 (Avg:46)
29 Megan Stehouwer Aphrodite Malakia 5 5:50:00 13.6, 13.7 13.71 38, 45, 46 (Avg:45)
11 Scarlet McQueen Elfar Krystella 7 7:51:00 10.7, 9.7 10.19 37, 42, 42 (Avg:42)